sensor_id;sensor_type;location;lat;lon;timestamp;P1;durP1;ratioP1;P2;durP2;ratioP2
71639;SDS011;60912;48.968;10.124;2023-09-18T00:00:18;5.90;;;3.43;;
71639;SDS011;60912;48.968;10.124;2023-09-18T00:02:46;5.50;;;3.42;;
71639;SDS011;60912;48.968;10.124;2023-09-18T00:05:11;6.17;;;3.80;;
71639;SDS011;60912;48.968;10.124;2023-09-18T00:07:43;4.07;;;3.30;;
71639;SDS011;60912;48.968;10.124;2023-09-18T00:10:09;5.47;;;3.58;;
71639;SDS011;60912;48.968;10.124;2023-09-18T00:12:36;5.25;;;3.60;;
71639;SDS011;60912;48.968;10.124;2023-09-18T00:15:01;7.13;;;3.70;;
71639;SDS011;60912;48.968;10.124;2023-09-18T00:17:26;5.67;;;3.90;;
71639;SDS011;60912;48.968;10.124;2023-09-18T00:19:52;4.50;;;3.53;;
71639;SDS011;60912;48.968;10.124;2023-09-18T00:22:17;5.93;;;3.80;;
71639;SDS011;60912;48.968;10.124;2023-09-18T00:24:42;5.80;;;3.37;;
71639;SDS011;60912;48.968;10.124;2023-09-18T00:27:08;4.83;;;3.50;;
71639;SDS011;60912;48.968;10.124;2023-09-18T00:29:33;4.70;;;3.50;;
71639;SDS011;60912;48.968;10.124;2023-09-18T00:31:58;4.60;;;3.60;;
71639;SDS011;60912;48.968;10.124;2023-09-18T00:34:24;4.73;;;3.67;;
71639;SDS011;60912;48.968;10.124;2023-09-18T00:36:49;4.83;;;3.70;;
71639;SDS011;60912;48.968;10.124;2023-09-18T00:39:14;5.10;;;3.80;;
71639;SDS011;60912;48.968;10.124;2023-09-18T00:41:40;4.60;;;3.40;;
71639;SDS011;60912;48.968;10.124;2023-09-18T00:44:06;5.33;;;3.97;;
71639;SDS011;60912;48.968;10.124;2023-09-18T00:46:31;5.32;;;3.42;;
71639;SDS011;60912;48.968;10.124;2023-09-18T00:48:58;5.20;;;3.65;;
71639;SDS011;60912;48.968;10.124;2023-09-18T00:51:23;5.17;;;3.57;;
71639;SDS011;60912;48.968;10.124;2023-09-18T00:53:49;5.93;;;3.50;;
71639;SDS011;60912;48.968;10.124;2023-09-18T00:56:15;4.50;;;3.33;;
71639;SDS011;60912;48.968;10.124;2023-09-18T00:58:41;4.95;;;3.55;;
71639;SDS011;60912;48.968;10.124;2023-09-18T01:01:07;5.85;;;4.10;;
71639;SDS011;60912;48.968;10.124;2023-09-18T01:03:34;5.93;;;3.70;;
71639;SDS011;60912;48.968;10.124;2023-09-18T01:06:00;4.93;;;3.45;;
71639;SDS011;60912;48.968;10.124;2023-09-18T01:08:26;5.10;;;3.80;;
71639;SDS011;60912;48.968;10.124;2023-09-18T01:11:10;4.20;;;3.40;;
71639;SDS011;60912;48.968;10.124;2023-09-18T01:14:28;6.35;;;3.80;;
71639;SDS011;60912;48.968;10.124;2023-09-18T01:16:44;4.40;;;3.53;;
71639;SDS011;60912;48.968;10.124;2023-09-18T01:22:02;5.40;;;3.80;;
71639;SDS011;60912;48.968;10.124;2023-09-18T01:24:27;5.27;;;3.67;;
71639;SDS011;60912;48.968;10.124;2023-09-18T01:26:52;6.73;;;3.47;;
71639;SDS011;60912;48.968;10.124;2023-09-18T01:29:18;6.03;;;3.53;;
71639;SDS011;60912;48.968;10.124;2023-09-18T01:31:44;6.47;;;3.75;;
71639;SDS011;60912;48.968;10.124;2023-09-18T01:34:13;8.50;;;4.18;;
71639;SDS011;60912;48.968;10.124;2023-09-18T01:36:42;4.18;;;3.25;;
71639;SDS011;60912;48.968;10.124;2023-09-18T01:39:09;7.72;;;3.90;;
71639;SDS011;60912;48.968;10.124;2023-09-18T01:41:36;9.03;;;3.37;;
71639;SDS011;60912;48.968;10.124;2023-09-18T01:44:03;4.93;;;3.55;;
71639;SDS011;60912;48.968;10.124;2023-09-18T01:46:29;5.50;;;3.70;;
71639;SDS011;60912;48.968;10.124;2023-09-18T01:48:57;5.20;;;3.78;;
71639;SDS011;60912;48.968;10.124;2023-09-18T01:51:24;4.50;;;3.78;;
71639;SDS011;60912;48.968;10.124;2023-09-18T01:53:49;5.37;;;3.50;;
71639;SDS011;60912;48.968;10.124;2023-09-18T01:56:15;6.50;;;3.87;;
71639;SDS011;60912;48.968;10.124;2023-09-18T01:58:40;4.72;;;3.53;;
71639;SDS011;60912;48.968;10.124;2023-09-18T02:01:05;6.77;;;3.97;;
71639;SDS011;60912;48.968;10.124;2023-09-18T02:03:31;6.73;;;4.20;;
71639;SDS011;60912;48.968;10.124;2023-09-18T02:05:56;6.30;;;4.30;;
71639;SDS011;60912;48.968;10.124;2023-09-18T02:08:21;6.40;;;4.13;;
71639;SDS011;60912;48.968;10.124;2023-09-18T02:10:47;10.80;;;4.73;;
71639;SDS011;60912;48.968;10.124;2023-09-18T02:13:12;5.43;;;3.80;;
71639;SDS011;60912;48.968;10.124;2023-09-18T02:15:37;6.87;;;4.00;;
71639;SDS011;60912;48.968;10.124;2023-09-18T02:18:03;5.65;;;4.22;;
71639;SDS011;60912;48.968;10.124;2023-09-18T02:20:28;7.77;;;4.37;;
71639;SDS011;60912;48.968;10.124;2023-09-18T02:22:54;5.73;;;3.97;;
71639;SDS011;60912;48.968;10.124;2023-09-18T02:25:19;5.87;;;4.40;;
71639;SDS011;60912;48.968;10.124;2023-09-18T02:27:44;6.15;;;4.50;;
71639;SDS011;60912;48.968;10.124;2023-09-18T02:30:10;5.47;;;4.20;;
71639;SDS011;60912;48.968;10.124;2023-09-18T02:32:36;6.43;;;4.00;;
71639;SDS011;60912;48.968;10.124;2023-09-18T02:35:01;6.50;;;4.15;;
71639;SDS011;60912;48.968;10.124;2023-09-18T02:37:27;6.65;;;3.80;;
71639;SDS011;60912;48.968;10.124;2023-09-18T02:39:54;5.63;;;4.07;;
71639;SDS011;60912;48.968;10.124;2023-09-18T02:42:19;5.72;;;3.72;;
71639;SDS011;60912;48.968;10.124;2023-09-18T02:44:45;5.03;;;3.63;;
71639;SDS011;60912;48.968;10.124;2023-09-18T02:47:10;7.07;;;3.87;;
71639;SDS011;60912;48.968;10.124;2023-09-18T02:49:35;6.20;;;3.93;;
71639;SDS011;60912;48.968;10.124;2023-09-18T02:52:01;5.73;;;4.20;;
71639;SDS011;60912;48.968;10.124;2023-09-18T02:54:26;7.03;;;4.53;;
71639;SDS011;60912;48.968;10.124;2023-09-18T02:56:52;9.70;;;4.50;;
71639;SDS011;60912;48.968;10.124;2023-09-18T02:59:17;6.10;;;4.40;;
71639;SDS011;60912;48.968;10.124;2023-09-18T03:01:42;5.63;;;4.13;;
71639;SDS011;60912;48.968;10.124;2023-09-18T03:04:08;6.23;;;4.83;;
71639;SDS011;60912;48.968;10.124;2023-09-18T03:06:33;10.67;;;4.37;;
71639;SDS011;60912;48.968;10.124;2023-09-18T03:08:58;5.57;;;3.93;;
71639;SDS011;60912;48.968;10.124;2023-09-18T03:11:24;5.30;;;3.67;;
71639;SDS011;60912;48.968;10.124;2023-09-18T03:13:52;6.20;;;4.00;;
71639;SDS011;60912;48.968;10.124;2023-09-18T03:16:17;7.10;;;4.20;;
71639;SDS011;60912;48.968;10.124;2023-09-18T03:18:43;5.57;;;3.90;;
71639;SDS011;60912;48.968;10.124;2023-09-18T03:21:08;5.13;;;3.70;;
71639;SDS011;60912;48.968;10.124;2023-09-18T03:23:33;12.18;;;4.38;;
71639;SDS011;60912;48.968;10.124;2023-09-18T03:25:59;6.80;;;4.80;;
71639;SDS011;60912;48.968;10.124;2023-09-18T03:28:24;6.37;;;3.80;;
71639;SDS011;60912;48.968;10.124;2023-09-18T03:30:50;5.57;;;4.00;;
71639;SDS011;60912;48.968;10.124;2023-09-18T03:33:15;4.60;;;3.30;;
71639;SDS011;60912;48.968;10.124;2023-09-18T03:35:47;7.13;;;3.90;;
71639;SDS011;60912;48.968;10.124;2023-09-18T03:38:14;5.57;;;3.85;;
71639;SDS011;60912;48.968;10.124;2023-09-18T03:40:39;5.40;;;4.37;;
71639;SDS011;60912;48.968;10.124;2023-09-18T03:43:06;5.63;;;4.20;;
71639;SDS011;60912;48.968;10.124;2023-09-18T03:45:32;7.45;;;3.92;;
71639;SDS011;60912;48.968;10.124;2023-09-18T03:47:57;7.13;;;4.07;;
71639;SDS011;60912;48.968;10.124;2023-09-18T03:50:22;6.63;;;4.20;;
71639;SDS011;60912;48.968;10.124;2023-09-18T03:52:48;6.20;;;3.93;;
71639;SDS011;60912;48.968;10.124;2023-09-18T03:55:13;6.37;;;4.43;;
71639;SDS011;60912;48.968;10.124;2023-09-18T03:57:39;5.97;;;4.65;;
71639;SDS011;60912;48.968;10.124;2023-09-18T04:00:05;8.68;;;4.25;;
71639;SDS011;60912;48.968;10.124;2023-09-18T04:02:32;6.93;;;4.45;;
71639;SDS011;60912;48.968;10.124;2023-09-18T04:04:57;7.67;;;4.70;;
71639;SDS011;60912;48.968;10.124;2023-09-18T04:07:23;8.03;;;4.43;;
71639;SDS011;60912;48.968;10.124;2023-09-18T04:09:48;6.37;;;4.60;;
71639;SDS011;60912;48.968;10.124;2023-09-18T04:12:14;6.83;;;4.60;;
71639;SDS011;60912;48.968;10.124;2023-09-18T04:14:39;5.35;;;4.35;;
71639;SDS011;60912;48.968;10.124;2023-09-18T04:17:05;6.40;;;4.30;;
71639;SDS011;60912;48.968;10.124;2023-09-18T04:19:30;7.37;;;4.57;;
71639;SDS011;60912;48.968;10.124;2023-09-18T04:21:55;7.53;;;4.30;;
71639;SDS011;60912;48.968;10.124;2023-09-18T04:24:21;8.10;;;4.33;;
71639;SDS011;60912;48.968;10.124;2023-09-18T04:26:46;6.10;;;4.50;;
71639;SDS011;60912;48.968;10.124;2023-09-18T04:29:12;7.07;;;4.27;;
71639;SDS011;60912;48.968;10.124;2023-09-18T04:31:37;7.25;;;4.50;;
71639;SDS011;60912;48.968;10.124;2023-09-18T04:34:03;5.53;;;4.33;;
71639;SDS011;60912;48.968;10.124;2023-09-18T04:36:29;5.30;;;4.55;;
71639;SDS011;60912;48.968;10.124;2023-09-18T04:38:54;6.50;;;4.63;;
71639;SDS011;60912;48.968;10.124;2023-09-18T04:41:20;5.23;;;4.37;;
71639;SDS011;60912;48.968;10.124;2023-09-18T04:43:45;9.13;;;4.40;;
71639;SDS011;60912;48.968;10.124;2023-09-18T04:46:10;9.48;;;4.32;;
71639;SDS011;60912;48.968;10.124;2023-09-18T04:48:36;9.63;;;4.47;;
71639;SDS011;60912;48.968;10.124;2023-09-18T04:51:03;9.57;;;4.43;;
71639;SDS011;60912;48.968;10.124;2023-09-18T04:53:29;7.53;;;4.38;;
71639;SDS011;60912;48.968;10.124;2023-09-18T04:55:55;14.73;;;4.68;;
71639;SDS011;60912;48.968;10.124;2023-09-18T04:58:20;13.50;;;4.50;;
71639;SDS011;60912;48.968;10.124;2023-09-18T05:00:45;6.83;;;4.40;;
71639;SDS011;60912;48.968;10.124;2023-09-18T05:03:14;6.28;;;4.60;;
71639;SDS011;60912;48.968;10.124;2023-09-18T05:05:39;10.30;;;4.93;;
71639;SDS011;60912;48.968;10.124;2023-09-18T05:08:08;7.03;;;4.60;;
71639;SDS011;60912;48.968;10.124;2023-09-18T05:10:36;7.13;;;4.57;;
71639;SDS011;60912;48.968;10.124;2023-09-18T05:13:02;8.88;;;5.05;;
71639;SDS011;60912;48.968;10.124;2023-09-18T05:15:28;6.68;;;4.55;;
71639;SDS011;60912;48.968;10.124;2023-09-18T05:17:54;6.83;;;4.37;;
71639;SDS011;60912;48.968;10.124;2023-09-18T05:20:22;9.13;;;4.93;;
71639;SDS011;60912;48.968;10.124;2023-09-18T05:22:49;8.13;;;4.47;;
71639;SDS011;60912;48.968;10.124;2023-09-18T05:25:18;6.75;;;4.10;;
71639;SDS011;60912;48.968;10.124;2023-09-18T05:27:43;10.67;;;4.40;;
71639;SDS011;60912;48.968;10.124;2023-09-18T05:30:10;5.55;;;4.25;;
71639;SDS011;60912;48.968;10.124;2023-09-18T05:32:37;11.32;;;4.30;;
71639;SDS011;60912;48.968;10.124;2023-09-18T05:35:02;5.80;;;4.03;;
71639;SDS011;60912;48.968;10.124;2023-09-18T05:37:31;9.00;;;4.40;;
71639;SDS011;60912;48.968;10.124;2023-09-18T05:39:56;8.00;;;3.80;;
71639;SDS011;60912;48.968;10.124;2023-09-18T05:42:22;7.10;;;3.87;;
71639;SDS011;60912;48.968;10.124;2023-09-18T05:44:47;5.83;;;4.10;;
71639;SDS011;60912;48.968;10.124;2023-09-18T05:47:12;7.28;;;3.95;;
71639;SDS011;60912;48.968;10.124;2023-09-18T05:49:38;7.10;;;3.80;;
71639;SDS011;60912;48.968;10.124;2023-09-18T05:52:03;6.23;;;4.07;;
71639;SDS011;60912;48.968;10.124;2023-09-18T05:54:29;7.20;;;4.17;;
71639;SDS011;60912;48.968;10.124;2023-09-18T05:56:54;7.03;;;3.97;;
71639;SDS011;60912;48.968;10.124;2023-09-18T05:59:19;8.32;;;3.90;;
71639;SDS011;60912;48.968;10.124;2023-09-18T06:01:45;9.00;;;4.27;;
71639;SDS011;60912;48.968;10.124;2023-09-18T06:04:11;6.00;;;3.80;;
71639;SDS011;60912;48.968;10.124;2023-09-18T06:06:37;6.87;;;3.90;;
71639;SDS011;60912;48.968;10.124;2023-09-18T06:09:03;8.15;;;4.05;;
71639;SDS011;60912;48.968;10.124;2023-09-18T06:11:28;7.73;;;4.00;;
71639;SDS011;60912;48.968;10.124;2023-09-18T06:13:54;8.90;;;4.20;;
71639;SDS011;60912;48.968;10.124;2023-09-18T06:16:19;7.50;;;4.17;;
71639;SDS011;60912;48.968;10.124;2023-09-18T06:18:44;7.25;;;3.42;;
71639;SDS011;60912;48.968;10.124;2023-09-18T06:21:10;7.33;;;4.17;;
71639;SDS011;60912;48.968;10.124;2023-09-18T06:23:35;8.70;;;4.53;;
71639;SDS011;60912;48.968;10.124;2023-09-18T06:26:01;8.50;;;4.30;;
71639;SDS011;60912;48.968;10.124;2023-09-18T06:28:26;7.82;;;4.05;;
71639;SDS011;60912;48.968;10.124;2023-09-18T06:30:52;10.60;;;3.97;;
71639;SDS011;60912;48.968;10.124;2023-09-18T06:33:19;8.43;;;4.30;;
71639;SDS011;60912;48.968;10.124;2023-09-18T06:35:44;8.10;;;3.90;;
71639;SDS011;60912;48.968;10.124;2023-09-18T06:38:09;11.50;;;4.03;;
71639;SDS011;60912;48.968;10.124;2023-09-18T06:40:37;10.52;;;4.53;;
71639;SDS011;60912;48.968;10.124;2023-09-18T06:43:04;6.38;;;4.05;;
71639;SDS011;60912;48.968;10.124;2023-09-18T06:45:29;11.82;;;4.30;;
71639;SDS011;60912;48.968;10.124;2023-09-18T06:47:55;9.37;;;3.50;;
71639;SDS011;60912;48.968;10.124;2023-09-18T06:50:20;13.17;;;3.63;;
71639;SDS011;60912;48.968;10.124;2023-09-18T06:52:46;10.63;;;3.30;;
71639;SDS011;60912;48.968;10.124;2023-09-18T06:55:11;12.23;;;3.92;;
71639;SDS011;60912;48.968;10.124;2023-09-18T06:57:37;10.07;;;3.90;;
71639;SDS011;60912;48.968;10.124;2023-09-18T07:00:02;9.27;;;3.83;;
71639;SDS011;60912;48.968;10.124;2023-09-18T07:02:29;10.07;;;3.30;;
71639;SDS011;60912;48.968;10.124;2023-09-18T07:04:55;10.10;;;3.10;;
71639;SDS011;60912;48.968;10.124;2023-09-18T07:07:20;11.80;;;3.13;;
71639;SDS011;60912;48.968;10.124;2023-09-18T07:09:50;8.82;;;3.30;;
71639;SDS011;60912;48.968;10.124;2023-09-18T07:12:18;9.80;;;3.10;;
71639;SDS011;60912;48.968;10.124;2023-09-18T07:14:44;14.63;;;3.07;;
71639;SDS011;60912;48.968;10.124;2023-09-18T07:17:10;15.05;;;3.22;;
71639;SDS011;60912;48.968;10.124;2023-09-18T07:19:36;8.03;;;2.67;;
71639;SDS011;60912;48.968;10.124;2023-09-18T07:22:01;9.93;;;2.90;;
71639;SDS011;60912;48.968;10.124;2023-09-18T07:24:27;9.43;;;2.90;;
71639;SDS011;60912;48.968;10.124;2023-09-18T07:26:52;14.17;;;3.07;;
71639;SDS011;60912;48.968;10.124;2023-09-18T07:29:18;13.63;;;3.60;;
71639;SDS011;60912;48.968;10.124;2023-09-18T07:31:43;11.47;;;3.13;;
71639;SDS011;60912;48.968;10.124;2023-09-18T07:34:09;7.93;;;3.53;;
71639;SDS011;60912;48.968;10.124;2023-09-18T07:36:35;9.43;;;3.40;;
71639;SDS011;60912;48.968;10.124;2023-09-18T07:39:01;11.43;;;3.58;;
71639;SDS011;60912;48.968;10.124;2023-09-18T07:41:27;8.07;;;2.87;;
71639;SDS011;60912;48.968;10.124;2023-09-18T07:43:52;9.57;;;3.10;;
71639;SDS011;60912;48.968;10.124;2023-09-18T07:46:18;10.03;;;2.87;;
71639;SDS011;60912;48.968;10.124;2023-09-18T07:48:43;6.73;;;2.37;;
71639;SDS011;60912;48.968;10.124;2023-09-18T07:51:12;9.73;;;2.60;;
71639;SDS011;60912;48.968;10.124;2023-09-18T07:53:37;7.77;;;2.60;;
71639;SDS011;60912;48.968;10.124;2023-09-18T07:56:03;8.32;;;2.50;;
71639;SDS011;60912;48.968;10.124;2023-09-18T07:58:30;10.25;;;2.40;;
71639;SDS011;60912;48.968;10.124;2023-09-18T08:00:55;8.60;;;2.60;;
71639;SDS011;60912;48.968;10.124;2023-09-18T08:03:22;8.00;;;2.40;;
71639;SDS011;60912;48.968;10.124;2023-09-18T08:05:52;10.20;;;2.20;;
71639;SDS011;60912;48.968;10.124;2023-09-18T08:08:18;6.43;;;2.00;;
71639;SDS011;60912;48.968;10.124;2023-09-18T08:10:45;9.07;;;2.20;;
71639;SDS011;60912;48.968;10.124;2023-09-18T08:13:14;10.32;;;2.10;;
71639;SDS011;60912;48.968;10.124;2023-09-18T08:15:39;9.13;;;2.00;;
71639;SDS011;60912;48.968;10.124;2023-09-18T08:18:05;8.43;;;2.20;;
71639;SDS011;60912;48.968;10.124;2023-09-18T08:20:30;7.50;;;2.33;;
71639;SDS011;60912;48.968;10.124;2023-09-18T08:22:55;11.73;;;2.13;;
71639;SDS011;60912;48.968;10.124;2023-09-18T08:25:21;10.70;;;2.50;;
71639;SDS011;60912;48.968;10.124;2023-09-18T08:27:47;7.15;;;2.10;;
71639;SDS011;60912;48.968;10.124;2023-09-18T08:30:13;6.43;;;2.08;;
71639;SDS011;60912;48.968;10.124;2023-09-18T08:32:39;7.27;;;1.80;;
71639;SDS011;60912;48.968;10.124;2023-09-18T08:35:08;9.93;;;1.92;;
71639;SDS011;60912;48.968;10.124;2023-09-18T08:37:34;6.35;;;1.80;;
71639;SDS011;60912;48.968;10.124;2023-09-18T08:39:59;6.07;;;1.63;;
71639;SDS011;60912;48.968;10.124;2023-09-18T08:42:46;8.05;;;1.52;;
71639;SDS011;60912;48.968;10.124;2023-09-18T08:45:35;11.18;;;1.95;;
71639;SDS011;60912;48.968;10.124;2023-09-18T08:48:01;9.30;;;1.90;;
71639;SDS011;60912;48.968;10.124;2023-09-18T08:50:27;7.18;;;2.08;;
71639;SDS011;60912;48.968;10.124;2023-09-18T08:52:54;7.60;;;1.60;;
71639;SDS011;60912;48.968;10.124;2023-09-18T08:55:20;9.27;;;1.50;;
71639;SDS011;60912;48.968;10.124;2023-09-18T08:57:46;8.47;;;1.70;;
71639;SDS011;60912;48.968;10.124;2023-09-18T09:00:11;6.53;;;1.48;;
71639;SDS011;60912;48.968;10.124;2023-09-18T09:02:41;6.00;;;1.50;;
71639;SDS011;60912;48.968;10.124;2023-09-18T09:05:08;10.67;;;2.40;;
71639;SDS011;60912;48.968;10.124;2023-09-18T09:07:33;6.82;;;1.80;;
71639;SDS011;60912;48.968;10.124;2023-09-18T09:09:59;7.80;;;1.60;;
71639;SDS011;60912;48.968;10.124;2023-09-18T09:15:22;7.35;;;1.90;;
71639;SDS011;60912;48.968;10.124;2023-09-18T09:17:51;6.03;;;1.85;;
71639;SDS011;60912;48.968;10.124;2023-09-18T09:20:16;5.07;;;1.40;;
71639;SDS011;60912;48.968;10.124;2023-09-18T09:22:43;7.03;;;1.40;;
71639;SDS011;60912;48.968;10.124;2023-09-18T09:27:53;5.53;;;1.40;;
71639;SDS011;60912;48.968;10.124;2023-09-18T09:30:21;6.32;;;1.48;;
71639;SDS011;60912;48.968;10.124;2023-09-18T09:32:48;3.83;;;1.45;;
71639;SDS011;60912;48.968;10.124;2023-09-18T09:35:25;8.18;;;1.60;;
71639;SDS011;60912;48.968;10.124;2023-09-18T09:37:53;5.60;;;1.10;;
71639;SDS011;60912;48.968;10.124;2023-09-18T09:40:26;7.30;;;1.23;;
71639;SDS011;60912;48.968;10.124;2023-09-18T09:42:54;5.38;;;1.20;;
71639;SDS011;60912;48.968;10.124;2023-09-18T09:45:25;4.60;;;1.20;;
71639;SDS011;60912;48.968;10.124;2023-09-18T09:47:53;5.75;;;1.10;;
71639;SDS011;60912;48.968;10.124;2023-09-18T09:50:19;6.03;;;1.20;;
71639;SDS011;60912;48.968;10.124;2023-09-18T09:52:48;6.77;;;1.10;;
71639;SDS011;60912;48.968;10.124;2023-09-18T09:55:28;4.72;;;1.08;;
71639;SDS011;60912;48.968;10.124;2023-09-18T09:58:03;4.00;;;1.13;;
71639;SDS011;60912;48.968;10.124;2023-09-18T10:03:08;6.35;;;1.00;;
71639;SDS011;60912;48.968;10.124;2023-09-18T10:05:36;4.13;;;1.10;;
71639;SDS011;60912;48.968;10.124;2023-09-18T10:08:06;5.35;;;1.08;;
71639;SDS011;60912;48.968;10.124;2023-09-18T10:10:38;5.37;;;1.10;;
71639;SDS011;60912;48.968;10.124;2023-09-18T10:13:20;5.50;;;1.02;;
71639;SDS011;60912;48.968;10.124;2023-09-18T10:15:47;4.82;;;1.10;;
71639;SDS011;60912;48.968;10.124;2023-09-18T10:18:27;4.43;;;1.08;;
71639;SDS011;60912;48.968;10.124;2023-09-18T10:21:30;4.22;;;1.10;;
71639;SDS011;60912;48.968;10.124;2023-09-18T10:24:14;2.90;;;0.93;;
71639;SDS011;60912;48.968;10.124;2023-09-18T10:26:50;3.08;;;1.00;;
71639;SDS011;60912;48.968;10.124;2023-09-18T10:29:19;2.45;;;0.90;;
71639;SDS011;60912;48.968;10.124;2023-09-18T10:31:44;3.63;;;1.00;;
71639;SDS011;60912;48.968;10.124;2023-09-18T10:34:12;4.55;;;1.00;;
71639;SDS011;60912;48.968;10.124;2023-09-18T10:36:39;3.23;;;1.00;;
71639;SDS011;60912;48.968;10.124;2023-09-18T10:39:06;5.25;;;1.00;;
71639;SDS011;60912;48.968;10.124;2023-09-18T10:41:35;5.82;;;1.17;;
71639;SDS011;60912;48.968;10.124;2023-09-18T10:44:02;4.20;;;1.00;;
71639;SDS011;60912;48.968;10.124;2023-09-18T10:46:29;3.13;;;0.90;;
71639;SDS011;60912;48.968;10.124;2023-09-18T10:48:55;5.53;;;1.00;;
71639;SDS011;60912;48.968;10.124;2023-09-18T10:51:21;3.42;;;0.90;;
71639;SDS011;60912;48.968;10.124;2023-09-18T10:53:48;3.08;;;1.20;;
71639;SDS011;60912;48.968;10.124;2023-09-18T10:56:17;5.55;;;0.93;;
71639;SDS011;60912;48.968;10.124;2023-09-18T10:58:43;3.85;;;1.05;;
71639;SDS011;60912;48.968;10.124;2023-09-18T11:01:11;5.63;;;1.10;;
71639;SDS011;60912;48.968;10.124;2023-09-18T11:03:37;3.42;;;1.00;;
71639;SDS011;60912;48.968;10.124;2023-09-18T11:06:06;5.25;;;1.23;;
71639;SDS011;60912;48.968;10.124;2023-09-18T11:08:46;5.60;;;1.30;;
71639;SDS011;60912;48.968;10.124;2023-09-18T11:11:13;6.57;;;1.35;;
71639;SDS011;60912;48.968;10.124;2023-09-18T11:13:45;4.93;;;1.10;;
71639;SDS011;60912;48.968;10.124;2023-09-18T11:18:53;6.82;;;1.10;;
71639;SDS011;60912;48.968;10.124;2023-09-18T11:21:25;4.77;;;1.47;;
71639;SDS011;60912;48.968;10.124;2023-09-18T11:24:01;4.05;;;1.23;;
71639;SDS011;60912;48.968;10.124;2023-09-18T11:26:32;4.90;;;1.20;;
71639;SDS011;60912;48.968;10.124;2023-09-18T11:29:06;5.78;;;1.60;;
71639;SDS011;60912;48.968;10.124;2023-09-18T11:31:44;4.72;;;1.08;;
71639;SDS011;60912;48.968;10.124;2023-09-18T11:36:41;4.00;;;1.20;;
71639;SDS011;60912;48.968;10.124;2023-09-18T11:39:07;5.28;;;1.30;;
71639;SDS011;60912;48.968;10.124;2023-09-18T11:41:34;5.55;;;1.10;;
71639;SDS011;60912;48.968;10.124;2023-09-18T11:46:38;4.33;;;1.40;;
71639;SDS011;60912;48.968;10.124;2023-09-18T11:49:08;5.72;;;1.40;;
71639;SDS011;60912;48.968;10.124;2023-09-18T11:51:36;2.95;;;1.30;;
71639;SDS011;60912;48.968;10.124;2023-09-18T11:54:01;3.83;;;1.30;;
71639;SDS011;60912;48.968;10.124;2023-09-18T11:56:28;4.57;;;1.10;;
71639;SDS011;60912;48.968;10.124;2023-09-18T11:58:54;4.45;;;1.20;;
71639;SDS011;60912;48.968;10.124;2023-09-18T12:01:20;4.87;;;1.20;;
71639;SDS011;60912;48.968;10.124;2023-09-18T12:04:00;3.55;;;1.00;;
71639;SDS011;60912;48.968;10.124;2023-09-18T12:06:26;3.60;;;1.10;;
71639;SDS011;60912;48.968;10.124;2023-09-18T12:08:52;4.83;;;1.33;;
71639;SDS011;60912;48.968;10.124;2023-09-18T12:11:18;6.88;;;1.45;;
71639;SDS011;60912;48.968;10.124;2023-09-18T12:13:45;3.25;;;1.08;;
71639;SDS011;60912;48.968;10.124;2023-09-18T12:16:13;5.72;;;1.00;;
71639;SDS011;60912;48.968;10.124;2023-09-18T12:18:44;3.27;;;1.10;;
71639;SDS011;60912;48.968;10.124;2023-09-18T12:21:13;4.82;;;1.20;;
71639;SDS011;60912;48.968;10.124;2023-09-18T12:23:40;3.13;;;0.93;;
71639;SDS011;60912;48.968;10.124;2023-09-18T12:26:10;5.28;;;1.20;;
71639;SDS011;60912;48.968;10.124;2023-09-18T12:28:38;5.05;;;1.05;;
71639;SDS011;60912;48.968;10.124;2023-09-18T12:31:04;4.53;;;1.10;;
71639;SDS011;60912;48.968;10.124;2023-09-18T12:33:33;4.63;;;1.10;;
71639;SDS011;60912;48.968;10.124;2023-09-18T12:36:00;3.23;;;1.17;;
71639;SDS011;60912;48.968;10.124;2023-09-18T12:38:25;4.15;;;1.10;;
71639;SDS011;60912;48.968;10.124;2023-09-18T12:40:53;4.53;;;1.50;;
71639;SDS011;60912;48.968;10.124;2023-09-18T12:43:19;6.97;;;1.77;;
71639;SDS011;60912;48.968;10.124;2023-09-18T12:45:47;4.65;;;1.27;;
71639;SDS011;60912;48.968;10.124;2023-09-18T12:48:14;4.97;;;1.25;;
71639;SDS011;60912;48.968;10.124;2023-09-18T12:50:40;3.40;;;1.23;;
71639;SDS011;60912;48.968;10.124;2023-09-18T12:53:09;5.60;;;1.55;;
71639;SDS011;60912;48.968;10.124;2023-09-18T12:55:35;3.00;;;1.10;;
71639;SDS011;60912;48.968;10.124;2023-09-18T12:58:02;3.15;;;1.20;;
71639;SDS011;60912;48.968;10.124;2023-09-18T13:00:32;4.55;;;1.27;;
71639;SDS011;60912;48.968;10.124;2023-09-18T13:02:58;4.93;;;1.00;;
71639;SDS011;60912;48.968;10.124;2023-09-18T13:05:23;6.68;;;1.30;;
71639;SDS011;60912;48.968;10.124;2023-09-18T13:08:00;4.13;;;1.03;;
71639;SDS011;60912;48.968;10.124;2023-09-18T13:10:27;3.05;;;1.10;;
71639;SDS011;60912;48.968;10.124;2023-09-18T13:12:53;3.57;;;1.20;;
71639;SDS011;60912;48.968;10.124;2023-09-18T13:15:30;4.25;;;1.30;;
71639;SDS011;60912;48.968;10.124;2023-09-18T13:18:00;6.30;;;1.70;;
71639;SDS011;60912;48.968;10.124;2023-09-18T13:20:33;3.28;;;1.05;;
71639;SDS011;60912;48.968;10.124;2023-09-18T13:22:59;4.67;;;1.20;;
71639;SDS011;60912;48.968;10.124;2023-09-18T13:25:28;3.28;;;1.30;;
71639;SDS011;60912;48.968;10.124;2023-09-18T13:27:55;4.55;;;1.05;;
71639;SDS011;60912;48.968;10.124;2023-09-18T13:30:20;3.47;;;1.03;;
71639;SDS011;60912;48.968;10.124;2023-09-18T13:32:47;4.13;;;1.20;;
71639;SDS011;60912;48.968;10.124;2023-09-18T13:35:17;5.00;;;0.93;;
71639;SDS011;60912;48.968;10.124;2023-09-18T13:37:43;7.45;;;3.13;;
71639;SDS011;60912;48.968;10.124;2023-09-18T13:40:10;5.93;;;1.30;;
71639;SDS011;60912;48.968;10.124;2023-09-18T13:42:36;3.92;;;1.10;;
71639;SDS011;60912;48.968;10.124;2023-09-18T13:45:02;3.53;;;1.13;;
71639;SDS011;60912;48.968;10.124;2023-09-18T13:47:31;3.13;;;1.17;;
71639;SDS011;60912;48.968;10.124;2023-09-18T13:49:57;5.80;;;1.40;;
71639;SDS011;60912;48.968;10.124;2023-09-18T13:52:31;4.10;;;1.40;;
71639;SDS011;60912;48.968;10.124;2023-09-18T13:54:58;4.40;;;1.10;;
71639;SDS011;60912;48.968;10.124;2023-09-18T13:57:24;3.03;;;1.20;;
71639;SDS011;60912;48.968;10.124;2023-09-18T13:59:49;5.27;;;1.23;;
71639;SDS011;60912;48.968;10.124;2023-09-18T14:02:15;4.63;;;1.27;;
71639;SDS011;60912;48.968;10.124;2023-09-18T14:04:41;3.67;;;1.20;;
71639;SDS011;60912;48.968;10.124;2023-09-18T14:07:07;3.60;;;1.20;;
71639;SDS011;60912;48.968;10.124;2023-09-18T14:09:33;2.83;;;1.17;;
71639;SDS011;60912;48.968;10.124;2023-09-18T14:11:59;4.35;;;1.48;;
71639;SDS011;60912;48.968;10.124;2023-09-18T14:14:25;3.50;;;1.40;;
71639;SDS011;60912;48.968;10.124;2023-09-18T14:16:51;3.17;;;1.30;;
71639;SDS011;60912;48.968;10.124;2023-09-18T14:19:17;3.75;;;1.27;;
71639;SDS011;60912;48.968;10.124;2023-09-18T14:21:42;4.63;;;1.50;;
71639;SDS011;60912;48.968;10.124;2023-09-18T14:24:08;4.97;;;1.77;;
71639;SDS011;60912;48.968;10.124;2023-09-18T14:26:34;3.85;;;1.55;;
71639;SDS011;60912;48.968;10.124;2023-09-18T14:29:06;4.95;;;1.23;;
71639;SDS011;60912;48.968;10.124;2023-09-18T14:31:32;3.70;;;1.50;;
71639;SDS011;60912;48.968;10.124;2023-09-18T14:33:57;3.43;;;1.40;;
71639;SDS011;60912;48.968;10.124;2023-09-18T14:36:24;6.60;;;1.83;;
71639;SDS011;60912;48.968;10.124;2023-09-18T14:38:49;5.17;;;1.90;;
71639;SDS011;60912;48.968;10.124;2023-09-18T14:41:14;3.05;;;1.40;;
71639;SDS011;60912;48.968;10.124;2023-09-18T14:43:42;4.43;;;1.30;;
71639;SDS011;60912;48.968;10.124;2023-09-18T14:46:07;3.30;;;1.40;;
71639;SDS011;60912;48.968;10.124;2023-09-18T14:48:32;4.87;;;1.60;;
71639;SDS011;60912;48.968;10.124;2023-09-18T14:50:59;3.70;;;1.10;;